Time;durP1;ratioP1;P1;durP2;ratioP2;P2;SDS_P1;SDS_P2;PMS_P1;PMS_P2;Temp;Humidity;BMP_temperature;BMP_pressure;BME280_temperature;BME280_humidity;BME280_pressure;Samples;Min_cycle;Max_cycle;Signal;HPM_P1;HPM_P2
2022/09/23 00:02:15;;;;;;;1.50;1.00;;;12.50;98.20;;;;;;5030601;28;20548;-79
2022/09/23 00:04:42;;;;;;;1.50;1.10;;;12.50;98.20;;;;;;5034072;28;20834;-79
2022/09/23 00:07:09;;;;;;;1.50;1.10;;;12.50;98.20;;;;;;5021289;28;20537;-80
2022/09/23 00:09:36;;;;;;;1.50;1.10;;;12.50;98.20;;;;;;5031610;28;20493;-79
2022/09/23 00:12:04;;;;;;;1.47;1.10;;;12.40;98.20;;;;;;5020541;28;20778;-79
2022/09/23 00:14:31;;;;;;;1.50;1.10;;;12.40;98.20;;;;;;5031875;28;20486;-79
2022/09/23 00:16:59;;;;;;;1.50;1.00;;;12.40;98.20;;;;;;5022834;28;20479;-79
2022/09/23 00:19:26;;;;;;;1.80;1.67;;;12.40;98.20;;;;;;5030897;28;20479;-79
2022/09/23 00:21:55;;;;;;;1.50;1.10;;;12.40;98.20;;;;;;5009958;28;20483;-80
2022/09/23 00:24:22;;;;;;;1.53;1.10;;;12.40;98.20;;;;;;5024487;28;20470;-80
2022/09/23 00:26:49;;;;;;;1.50;1.00;;;12.40;98.20;;;;;;5021023;28;20478;-81
2022/09/23 00:29:16;;;;;;;1.50;1.13;;;12.40;98.20;;;;;;5032251;28;20510;-80
2022/09/23 00:31:44;;;;;;;1.50;1.07;;;12.40;98.20;;;;;;5022456;28;20487;-80
2022/09/23 00:34:12;;;;;;;1.50;1.00;;;12.40;98.20;;;;;;5031140;28;20478;-80
2022/09/23 00:36:39;;;;;;;1.50;1.03;;;12.30;98.20;;;;;;5021926;28;20499;-80
2022/09/23 00:39:06;;;;;;;1.50;1.10;;;12.30;98.20;;;;;;5031870;28;20497;-80
2022/09/23 00:41:34;;;;;;;1.50;1.30;;;12.30;98.20;;;;;;5021545;28;20889;-80
2022/09/23 00:44:01;;;;;;;1.50;1.10;;;12.30;98.20;;;;;;5031398;28;20899;-80
2022/09/23 00:46:32;;;;;;;1.47;1.00;;;12.30;98.20;;;;;;5018661;28;20511;-80
2022/09/23 00:49:05;;;;;;;1.50;1.10;;;12.30;98.20;;;;;;5030252;28;20483;-79
2022/09/23 00:51:40;;;;;;;1.50;1.07;;;12.30;98.20;;;;;;5019827;28;20475;-79
2022/09/23 00:54:07;;;;;;;1.50;1.10;;;12.30;98.20;;;;;;5029069;28;20477;-80
2022/09/23 00:56:35;;;;;;;1.50;1.03;;;12.30;98.20;;;;;;5020508;28;20506;-79
2022/09/23 00:59:03;;;;;;;1.50;1.00;;;12.20;98.20;;;;;;5030472;28;20562;-80
2022/09/23 01:01:29;;;;;;;1.50;1.07;;;12.20;98.20;;;;;;5018965;28;20483;-79
2022/09/23 01:03:57;;;;;;;1.50;1.13;;;12.20;98.20;;;;;;5030449;28;20499;-79
2022/09/23 01:06:25;;;;;;;1.50;1.10;;;12.20;98.20;;;;;;5017619;28;20520;-79
2022/09/23 01:08:54;;;;;;;1.50;1.10;;;12.20;98.20;;;;;;5019321;28;20554;-80
2022/09/23 01:11:38;;;;;;;1.50;1.00;;;12.20;98.20;;;;;;5016470;28;20483;-80
2022/09/23 01:14:30;;;;;;;1.50;1.10;;;12.20;98.20;;;;;;5023889;28;20558;-79
2022/09/23 01:17:03;;;;;;;1.50;1.07;;;12.20;98.20;;;;;;5018638;28;20491;-80
2022/09/23 01:20:01;;;;;;;1.50;1.10;;;12.20;98.20;;;;;;5025868;28;20816;-79
2022/09/23 01:22:40;;;;;;;1.50;1.10;;;12.20;98.20;;;;;;5016127;28;20493;-80
2022/09/23 01:25:30;;;;;;;1.50;1.10;;;12.20;98.20;;;;;;5032120;28;20473;-81
2022/09/23 01:28:17;;;;;;;1.50;1.10;;;12.10;98.20;;;;;;5026122;28;20487;-80
2022/09/23 01:31:04;;;;;;;1.50;1.10;;;12.10;98.20;;;;;;5040063;28;20553;-80
2022/09/23 01:33:40;;;;;;;1.50;1.00;;;12.10;98.20;;;;;;5005875;28;20860;-79
2022/09/23 01:36:27;;;;;;;1.50;1.10;;;12.10;98.20;;;;;;5031117;28;20750;-80
2022/09/23 01:39:00;;;;;;;1.47;1.10;;;12.00;98.20;;;;;;5039152;28;20463;-80
2022/09/23 01:41:48;;;;;;;1.50;1.00;;;12.00;98.20;;;;;;5028537;28;20479;-80
2022/09/23 01:44:25;;;;;;;1.50;1.10;;;12.00;98.20;;;;;;5034894;28;20471;-80
2022/09/23 01:47:00;;;;;;;1.50;1.10;;;12.00;98.20;;;;;;5032266;28;20475;-80
2022/09/23 01:49:42;;;;;;;1.50;1.10;;;12.00;98.20;;;;;;5039406;28;21237;-80
2022/09/23 01:52:18;;;;;;;1.50;1.10;;;12.00;98.20;;;;;;5014569;28;20472;-80
2022/09/23 01:54:55;;;;;;;1.50;1.20;;;12.00;98.20;;;;;;5030034;28;20476;-80
2022/09/23 01:57:33;;;;;;;1.50;1.10;;;12.00;98.20;;;;;;5027141;28;20475;-80
2022/09/23 02:00:09;;;;;;;1.50;1.10;;;12.00;98.20;;;;;;5039149;28;20483;-81
2022/09/23 02:02:58;;;;;;;1.50;1.00;;;12.00;98.20;;;;;;5027230;28;20525;-79
2022/09/23 02:05:40;;;;;;;2.43;2.23;;;12.00;98.20;;;;;;5033396;28;20498;-80
2022/09/23 02:08:17;;;;;;;1.50;1.10;;;12.00;98.20;;;;;;5027318;28;20545;-79
2022/09/23 02:10:53;;;;;;;1.50;1.10;;;12.00;98.20;;;;;;5036029;28;20478;-79
2022/09/23 02:13:28;;;;;;;1.50;1.10;;;11.90;98.20;;;;;;5008896;28;20897;-79
2022/09/23 02:16:01;;;;;;;1.50;1.10;;;11.90;98.20;;;;;;5023830;28;20466;-79
2022/09/23 02:18:36;;;;;;;1.50;1.07;;;11.90;98.20;;;;;;5023304;28;20536;-79
2022/09/23 02:21:07;;;;;;;1.50;1.00;;;11.90;98.20;;;;;;5016841;28;20481;-80
2022/09/23 02:23:38;;;;;;;1.50;1.10;;;11.90;98.20;;;;;;5020883;28;20463;-79
2022/09/23 02:26:11;;;;;;;1.50;1.00;;;11.90;98.20;;;;;;5018808;28;20475;-79
2022/09/23 02:28:46;;;;;;;1.50;1.20;;;11.80;98.20;;;;;;5027961;28;20558;-79
2022/09/23 02:31:21;;;;;;;1.50;1.10;;;11.80;98.20;;;;;;5018582;28;21030;-79
2022/09/23 02:33:57;;;;;;;1.50;1.10;;;11.80;98.20;;;;;;5028399;28;20476;-79
2022/09/23 02:36:30;;;;;;;1.50;1.10;;;11.80;98.20;;;;;;5015742;28;20485;-79
2022/09/23 02:39:02;;;;;;;1.50;1.00;;;11.80;98.20;;;;;;5022429;28;20487;-78
2022/09/23 02:41:35;;;;;;;1.50;1.10;;;11.80;98.20;;;;;;5021197;28;20955;-79
2022/09/23 02:44:05;;;;;;;1.50;1.10;;;11.80;98.20;;;;;;5028459;28;20907;-79
2022/09/23 02:46:33;;;;;;;1.50;1.10;;;11.70;98.20;;;;;;5015994;28;20511;-79
2022/09/23 02:49:09;;;;;;;1.50;1.10;;;11.80;98.20;;;;;;5027942;28;20574;-79
2022/09/23 02:51:37;;;;;;;1.50;1.10;;;11.80;98.20;;;;;;5011965;28;20476;-80
2022/09/23 02:54:07;;;;;;;1.50;1.10;;;11.80;98.20;;;;;;5023725;28;20478;-79
2022/09/23 02:56:34;;;;;;;1.50;1.10;;;11.80;98.20;;;;;;5018541;28;20518;-79
2022/09/23 02:59:02;;;;;;;1.50;1.10;;;11.80;98.20;;;;;;5028653;28;20484;-79
2022/09/23 03:01:38;;;;;;;1.50;1.37;;;11.80;98.20;;;;;;5019127;28;20484;-78
2022/09/23 03:04:15;;;;;;;1.47;1.07;;;11.70;98.20;;;;;;5031393;28;20952;-79
2022/09/23 03:06:52;;;;;;;1.50;1.10;;;11.70;98.20;;;;;;5020180;28;20544;-79
2022/09/23 03:09:25;;;;;;;1.50;1.10;;;11.70;98.20;;;;;;5028633;28;20492;-79
2022/09/23 03:11:59;;;;;;;1.50;1.10;;;11.70;98.20;;;;;;5028944;28;20494;-79
2022/09/23 03:14:32;;;;;;;1.50;1.10;;;11.70;98.20;;;;;;5032888;28;20453;-79
2022/09/23 03:17:03;;;;;;;1.50;1.10;;;11.70;98.20;;;;;;5020326;28;20479;-80
2022/09/23 03:19:36;;;;;;;1.50;1.10;;;11.70;98.20;;;;;;5027875;28;20502;-79
2022/09/23 03:22:08;;;;;;;1.50;1.10;;;11.70;98.20;;;;;;5016617;28;20682;-79
2022/09/23 03:24:38;;;;;;;1.50;1.10;;;11.70;98.20;;;;;;5031496;28;20509;-79
2022/09/23 03:27:12;;;;;;;1.50;1.10;;;11.70;98.20;;;;;;5025919;28;20999;-80
2022/09/23 03:29:41;;;;;;;1.50;1.10;;;11.60;98.20;;;;;;5029993;28;20489;-79
2022/09/23 03:32:08;;;;;;;1.50;1.00;;;11.60;98.20;;;;;;5015930;28;20483;-79
2022/09/23 03:34:38;;;;;;;1.50;1.10;;;11.60;98.20;;;;;;5024016;28;20617;-81
2022/09/23 03:37:16;;;;;;;1.50;1.10;;;11.60;98.20;;;;;;5021521;28;21066;-80
2022/09/23 03:39:47;;;;;;;1.50;1.10;;;11.60;98.20;;;;;;5028716;28;20482;-79
2022/09/23 03:42:18;;;;;;;1.50;1.10;;;11.60;98.20;;;;;;5016894;28;20768;-80
2022/09/23 03:44:46;;;;;;;1.50;1.10;;;11.50;98.20;;;;;;5030134;28;20467;-79
2022/09/23 03:47:15;;;;;;;1.50;1.10;;;11.50;98.20;;;;;;5020346;28;20479;-80
2022/09/23 03:49:47;;;;;;;1.50;1.00;;;11.50;98.20;;;;;;5033940;28;20481;-79
2022/09/23 03:52:14;;;;;;;1.50;1.10;;;11.50;98.20;;;;;;5013448;28;20479;-80
2022/09/23 03:54:41;;;;;;;1.50;1.10;;;11.50;98.20;;;;;;5031385;28;20546;-79
2022/09/23 03:57:08;;;;;;;1.50;1.10;;;11.50;98.20;;;;;;5020328;28;20565;-80
2022/09/23 03:59:35;;;;;;;1.50;1.00;;;11.40;98.20;;;;;;5031609;28;20537;-79
2022/09/23 04:02:02;;;;;;;1.50;1.10;;;11.40;98.20;;;;;;5011299;28;21112;-80
2022/09/23 04:04:33;;;;;;;1.50;1.10;;;11.40;98.20;;;;;;5029437;28;20776;-81
2022/09/23 04:07:01;;;;;;;1.50;1.10;;;11.40;98.20;;;;;;5023499;28;20485;-79
2022/09/23 04:09:29;;;;;;;1.47;1.00;;;11.40;98.20;;;;;;5035684;28;20487;-80
2022/09/23 04:11:56;;;;;;;1.50;1.10;;;11.40;98.20;;;;;;5030070;28;20485;-81
2022/09/23 04:14:23;;;;;;;1.50;1.10;;;11.40;98.20;;;;;;5037561;28;20471;-80
2022/09/23 04:16:50;;;;;;;1.50;1.10;;;11.40;98.20;;;;;;5029221;28;20487;-80
2022/09/23 04:19:17;;;;;;;1.50;1.10;;;11.30;98.20;;;;;;5036635;28;20490;-79
2022/09/23 04:21:45;;;;;;;1.50;1.10;;;11.30;98.20;;;;;;5019563;28;20508;-80
2022/09/23 04:24:14;;;;;;;1.50;1.10;;;11.30;98.20;;;;;;5028303;28;20459;-79
2022/09/23 04:26:41;;;;;;;1.50;1.10;;;11.30;98.20;;;;;;5025017;28;20471;-79
2022/09/23 04:29:10;;;;;;;1.50;1.10;;;11.30;98.20;;;;;;5035755;28;20545;-79
2022/09/23 04:31:37;;;;;;;1.50;1.20;;;11.30;98.20;;;;;;5027058;28;20907;-79
2022/09/23 04:34:04;;;;;;;1.50;1.00;;;11.20;98.20;;;;;;5038895;28;20467;-79
2022/09/23 04:36:31;;;;;;;1.50;1.10;;;11.20;98.20;;;;;;5027377;28;20569;-79
2022/09/23 04:38:58;;;;;;;1.50;1.10;;;11.20;98.20;;;;;;5034116;28;20505;-79
2022/09/23 04:41:27;;;;;;;1.47;1.00;;;11.20;98.20;;;;;;5023068;28;20561;-79
2022/09/23 04:43:56;;;;;;;1.80;1.50;;;11.10;98.20;;;;;;5032860;28;20505;-79
2022/09/23 04:46:24;;;;;;;1.50;1.10;;;11.10;98.20;;;;;;5020878;28;20483;-80
2022/09/23 04:48:51;;;;;;;1.50;1.10;;;11.10;98.20;;;;;;5029286;28;20841;-79
2022/09/23 04:51:20;;;;;;;1.50;1.20;;;11.10;98.20;;;;;;5024860;28;20563;-80
2022/09/23 04:53:48;;;;;;;1.50;1.10;;;11.10;98.20;;;;;;5034978;28;20506;-79
2022/09/23 04:56:17;;;;;;;1.50;1.10;;;11.10;98.20;;;;;;5020712;28;20493;-79
2022/09/23 04:58:46;;;;;;;1.50;1.20;;;11.10;98.20;;;;;;5036471;28;20528;-80
2022/09/23 05:01:15;;;;;;;1.50;1.00;;;11.10;98.20;;;;;;5027662;28;20487;-79
2022/09/23 05:03:44;;;;;;;2.70;2.40;;;11.10;98.20;;;;;;5037711;28;20534;-79
2022/09/23 05:06:13;;;;;;;1.50;1.10;;;11.10;98.20;;;;;;5028510;28;20487;-79
2022/09/23 05:08:40;;;;;;;1.50;1.10;;;11.00;98.20;;;;;;5037359;28;20566;-80
2022/09/23 05:11:08;;;;;;;1.50;1.10;;;11.00;98.20;;;;;;5025380;28;20961;-79
2022/09/23 05:13:35;;;;;;;1.50;1.20;;;11.00;98.20;;;;;;5036394;28;20743;-80
2022/09/23 05:16:08;;;;;;;1.50;1.10;;;11.00;98.20;;;;;;5026888;28;20494;-80
2022/09/23 05:18:37;;;;;;;4.57;4.20;;;11.00;98.20;;;;;;5034423;28;20498;-80
2022/09/23 05:25:05;;;;;;;1.50;1.10;;;11.10;98.20;;;;;;4931857;29;20459;-80
2022/09/23 05:27:32;;;;;;;1.50;1.10;;;11.10;98.20;;;;;;4930397;28;20505;-80
2022/09/23 05:29:59;;;;;;;1.50;1.10;;;11.10;98.20;;;;;;5035708;28;20526;-80
2022/09/23 05:32:28;;;;;;;1.50;1.10;;;11.10;98.20;;;;;;5023040;28;20479;-80
2022/09/23 05:34:56;;;;;;;1.50;1.10;;;11.10;98.20;;;;;;5035740;28;20463;-79
2022/09/23 05:37:24;;;;;;;1.50;1.10;;;11.10;98.20;;;;;;5031505;28;20530;-80
2022/09/23 05:39:51;;;;;;;1.50;1.10;;;11.10;98.20;;;;;;5034043;28;20487;-80
2022/09/23 05:42:19;;;;;;;1.50;1.10;;;11.10;98.20;;;;;;5022372;28;20736;-80
2022/09/23 05:44:47;;;;;;;1.50;1.20;;;11.10;98.20;;;;;;5036673;28;20513;-81
2022/09/23 05:47:15;;;;;;;1.50;1.20;;;11.10;98.20;;;;;;5026023;28;20483;-80
2022/09/23 05:49:43;;;;;;;1.50;1.13;;;11.10;98.20;;;;;;5037614;28;20852;-80
2022/09/23 05:52:10;;;;;;;1.50;1.17;;;11.10;98.20;;;;;;5026789;28;20479;-79
2022/09/23 05:54:39;;;;;;;1.50;1.13;;;11.20;98.20;;;;;;5038259;28;20463;-80
2022/09/23 05:57:06;;;;;;;1.60;1.50;;;11.20;98.20;;;;;;5027362;28;20506;-80
2022/09/23 05:59:33;;;;;;;1.50;1.20;;;11.20;98.20;;;;;;5036109;28;20479;-81
2022/09/23 06:02:01;;;;;;;1.50;1.10;;;11.20;98.20;;;;;;5019350;28;20479;-80
2022/09/23 06:04:28;;;;;;;1.47;1.10;;;11.20;98.20;;;;;;5028246;28;20555;-80
2022/09/23 06:07:34;;;;;;;1.50;1.10;;;11.30;98.20;;;;;;5001658;28;20992;-81
2022/09/23 06:10:51;;;;;;;1.50;1.10;;;11.40;98.20;;;;;;4998416;28;20556;-80
2022/09/23 06:13:19;;;;;;;1.50;1.10;;;11.50;98.20;;;;;;4940174;28;20475;-82
2022/09/23 06:15:46;;;;;;;1.50;1.10;;;11.50;98.20;;;;;;5034198;28;20459;-81
2022/09/23 06:18:13;;;;;;;1.50;1.10;;;11.60;98.20;;;;;;5016624;28;20566;-81
2022/09/23 06:20:40;;;;;;;1.50;1.10;;;11.60;98.20;;;;;;5028666;28;20483;-81
2022/09/23 06:23:11;;;;;;;1.50;1.10;;;11.70;98.20;;;;;;5018727;28;21021;-81
2022/09/23 06:25:38;;;;;;;1.50;1.10;;;11.80;98.20;;;;;;5026604;28;20508;-82
2022/09/23 06:28:09;;;;;;;1.50;1.10;;;11.80;98.20;;;;;;5017066;28;20533;-81
2022/09/23 06:30:38;;;;;;;1.50;1.10;;;11.90;98.20;;;;;;5030865;28;20530;-81
2022/09/23 06:33:05;;;;;;;1.50;1.20;;;12.00;98.20;;;;;;5024734;28;20538;-81
2022/09/23 06:35:32;;;;;;;1.50;1.10;;;12.10;98.20;;;;;;5028570;28;20800;-81
2022/09/23 06:38:02;;;;;;;1.50;1.10;;;12.10;98.20;;;;;;5018022;28;21006;-82
2022/09/23 06:40:31;;;;;;;1.50;1.00;;;12.20;98.20;;;;;;5028281;28;21055;-82
2022/09/23 06:42:59;;;;;;;1.50;1.00;;;12.30;98.20;;;;;;5016059;28;20545;-81
2022/09/23 06:45:27;;;;;;;1.50;1.10;;;12.40;98.20;;;;;;5028345;28;20474;-82
2022/09/23 06:47:56;;;;;;;1.50;1.00;;;12.50;98.20;;;;;;5015065;28;21464;-81
2022/09/23 06:50:24;;;;;;;1.50;1.10;;;12.70;98.20;;;;;;5028491;28;20490;-80
2022/09/23 06:52:53;;;;;;;1.50;1.00;;;12.90;97.90;;;;;;5003410;28;20486;-80
2022/09/23 06:55:21;;;;;;;1.50;1.00;;;13.10;97.20;;;;;;5028729;28;20553;-79
2022/09/23 06:57:49;;;;;;;1.50;0.90;;;13.30;96.20;;;;;;5017658;28;20538;-82
2022/09/23 07:00:17;;;;;;;1.50;0.93;;;13.30;95.90;;;;;;5029792;28;20479;-82
2022/09/23 07:02:44;;;;;;;1.50;1.17;;;13.30;95.60;;;;;;5018005;28;21201;-80
2022/09/23 07:05:11;;;;;;;1.50;1.00;;;13.50;96.20;;;;;;5026620;28;20474;-80
2022/09/23 07:07:40;;;;;;;1.50;1.03;;;13.60;95.00;;;;;;5019475;28;20490;-81
2022/09/23 07:10:08;;;;;;;1.50;0.97;;;13.80;95.40;;;;;;5032100;28;20801;-81
2022/09/23 07:12:36;;;;;;;1.73;1.50;;;14.00;94.60;;;;;;5021674;28;20490;-83
2022/09/23 07:15:05;;;;;;;1.50;1.00;;;14.10;93.50;;;;;;5033329;28;20558;-81
2022/09/23 07:17:33;;;;;;;1.50;0.93;;;14.00;93.80;;;;;;5017885;28;20957;-80
2022/09/23 07:20:01;;;;;;;1.50;0.90;;;14.00;93.90;;;;;;5026306;28;20482;-81
2022/09/23 07:22:28;;;;;;;1.50;1.00;;;14.00;94.10;;;;;;5017989;28;20479;-80
2022/09/23 07:24:55;;;;;;;1.50;1.00;;;14.20;94.10;;;;;;5030624;28;20467;-80
2022/09/23 07:27:24;;;;;;;1.50;1.00;;;14.30;94.10;;;;;;5021340;28;20490;-80
2022/09/23 07:29:51;;;;;;;3.03;2.73;;;14.40;93.70;;;;;;5027001;28;20490;-80
2022/09/23 07:32:20;;;;;;;1.50;1.00;;;14.60;93.60;;;;;;5017282;28;20557;-80
2022/09/23 07:34:48;;;;;;;1.50;0.90;;;14.70;93.10;;;;;;5029200;28;20832;-81
2022/09/23 07:37:17;;;;;;;1.43;0.90;;;14.80;92.40;;;;;;5016604;28;20475;-81
2022/09/23 07:39:44;;;;;;;1.50;1.00;;;14.90;92.30;;;;;;5030325;28;20494;-80
2022/09/23 07:42:13;;;;;;;1.60;1.30;;;14.80;92.20;;;;;;5016838;28;21037;-80
2022/09/23 07:44:40;;;;;;;1.47;0.90;;;14.80;92.40;;;;;;5033277;28;20893;-81
2022/09/23 07:47:08;;;;;;;1.43;1.00;;;14.80;92.50;;;;;;5021220;28;20483;-80
2022/09/23 07:49:37;;;;;;;1.47;1.00;;;14.80;92.40;;;;;;5031870;28;20482;-81
2022/09/23 07:52:04;;;;;;;1.47;0.90;;;14.90;92.10;;;;;;5020200;28;20561;-81
2022/09/23 07:54:32;;;;;;;1.50;1.00;;;14.80;92.00;;;;;;5028811;28;20566;-81
2022/09/23 07:56:59;;;;;;;1.50;0.90;;;14.80;92.50;;;;;;5021374;28;20475;-80
2022/09/23 07:59:27;;;;;;;1.50;0.90;;;14.80;92.30;;;;;;5032375;28;20483;-80
2022/09/23 08:01:55;;;;;;;1.50;1.00;;;14.80;92.40;;;;;;5021182;28;20830;-80
2022/09/23 08:04:26;;;;;;;1.50;1.00;;;14.80;92.70;;;;;;5031564;28;20491;-80
2022/09/23 08:06:57;;;;;;;1.50;1.00;;;14.80;92.90;;;;;;5023997;28;20976;-80
2022/09/23 08:09:27;;;;;;;1.50;0.90;;;14.90;93.30;;;;;;5031359;28;20483;-81
2022/09/23 08:11:55;;;;;;;1.47;1.00;;;15.00;92.90;;;;;;5022375;28;20805;-80
2022/09/23 08:14:22;;;;;;;1.50;1.00;;;15.00;92.90;;;;;;5034140;28;20459;-81
2022/09/23 08:16:51;;;;;;;1.43;0.90;;;15.10;92.20;;;;;;5023993;28;20511;-81
2022/09/23 08:19:18;;;;;;;1.50;1.00;;;15.20;92.60;;;;;;5032177;28;20490;-81
2022/09/23 08:21:46;;;;;;;1.50;1.00;;;15.30;92.70;;;;;;5016509;28;20553;-80
2022/09/23 08:24:17;;;;;;;1.50;1.00;;;15.40;92.80;;;;;;5023887;28;20483;-81
2022/09/23 08:26:46;;;;;;;1.50;0.90;;;15.50;92.30;;;;;;5020836;28;20534;-81
2022/09/23 08:29:14;;;;;;;1.50;1.00;;;15.50;91.70;;;;;;5033005;28;20566;-80
2022/09/23 08:31:42;;;;;;;1.50;1.00;;;15.50;91.50;;;;;;5022227;28;20738;-81
2022/09/23 08:34:10;;;;;;;1.43;0.90;;;15.50;91.50;;;;;;5031564;28;20521;-81
2022/09/23 08:36:38;;;;;;;1.47;1.00;;;15.60;91.90;;;;;;5020770;28;20996;-81
2022/09/23 08:39:06;;;;;;;1.47;0.90;;;15.60;91.70;;;;;;5031720;28;20494;-81
2022/09/23 08:41:43;;;;;;;1.50;1.00;;;15.70;91.30;;;;;;5021939;28;20506;-80
2022/09/23 08:44:16;;;;;;;1.50;1.00;;;15.80;91.80;;;;;;5031316;28;20499;-80
2022/09/23 08:46:48;;;;;;;1.50;1.00;;;16.00;91.00;;;;;;5017743;28;20485;-80
2022/09/23 08:49:26;;;;;;;1.50;0.90;;;16.20;91.20;;;;;;5035639;28;21026;-79
2022/09/23 08:51:54;;;;;;;1.50;1.00;;;16.40;90.00;;;;;;5013585;28;20533;-81
2022/09/23 08:54:22;;;;;;;1.50;0.90;;;16.60;89.20;;;;;;5025133;28;20925;-81
2022/09/23 08:56:52;;;;;;;1.50;0.90;;;16.80;89.00;;;;;;5020025;28;20475;-80
2022/09/23 08:59:27;;;;;;;1.43;0.90;;;16.90;88.60;;;;;;5032048;28;20570;-81
2022/09/23 09:02:00;;;;;;;1.50;1.00;;;17.00;88.70;;;;;;5019848;28;20487;-81
2022/09/23 09:04:36;;;;;;;1.50;0.93;;;17.10;88.30;;;;;;5030911;28;20510;-81
2022/09/23 09:07:13;;;;;;;1.50;0.90;;;17.20;87.70;;;;;;5020987;28;20904;-81
2022/09/23 09:09:46;;;;;;;1.47;0.90;;;17.20;88.10;;;;;;5029866;28;20485;-81
2022/09/23 09:12:18;;;;;;;1.47;1.00;;;17.20;87.90;;;;;;5021205;28;20509;-80
2022/09/23 09:14:57;;;;;;;1.47;0.90;;;17.10;87.80;;;;;;5031845;28;20805;-81
2022/09/23 09:17:35;;;;;;;1.50;1.00;;;17.00;87.90;;;;;;5020110;28;20615;-81
2022/09/23 09:20:56;;;;;;;1.50;1.00;;;16.90;88.20;;;;;;5035275;28;21015;-82
2022/09/23 09:23:26;;;;;;;1.47;0.90;;;16.90;88.60;;;;;;4992561;28;20509;-82
2022/09/23 09:25:57;;;;;;;1.47;0.90;;;17.00;88.60;;;;;;5019675;28;20939;-79
2022/09/23 09:28:29;;;;;;;1.50;1.00;;;17.00;88.40;;;;;;5031850;28;20474;-80
2022/09/23 09:31:01;;;;;;;1.50;0.90;;;17.00;88.60;;;;;;5021638;28;20471;-81
2022/09/23 09:33:35;;;;;;;1.43;0.90;;;17.10;87.70;;;;;;5029964;28;20551;-80
2022/09/23 09:36:15;;;;;;;1.50;1.00;;;17.20;88.70;;;;;;5019578;28;20483;-81
2022/09/23 09:38:42;;;;;;;1.50;0.90;;;17.30;87.60;;;;;;5041057;28;20793;-80
2022/09/23 09:41:15;;;;;;;1.43;0.90;;;17.20;87.50;;;;;;5022403;28;20491;-80
2022/09/23 09:43:56;;;;;;;1.50;0.97;;;17.30;88.40;;;;;;5031306;28;20490;-80
2022/09/23 09:46:51;;;;;;;1.47;1.00;;;17.40;86.90;;;;;;5017004;28;20478;-80
2022/09/23 09:49:27;;;;;;;1.47;0.90;;;17.80;86.30;;;;;;5025044;28;20491;-80
2022/09/23 09:52:14;;;;;;;1.47;0.90;;;18.00;85.80;;;;;;5019978;28;20870;-80
2022/09/23 09:54:43;;;;;;;1.50;0.90;;;18.20;84.40;;;;;;5030643;28;20539;-80
2022/09/23 09:57:31;;;;;;;1.50;1.00;;;18.30;85.40;;;;;;5018487;28;20530;-79
2022/09/23 10:00:18;;;;;;;1.50;0.90;;;18.50;85.20;;;;;;5027087;28;20491;-80
2022/09/23 10:02:52;;;;;;;1.50;0.90;;;18.60;84.10;;;;;;5018387;28;21017;-81
2022/09/23 10:05:27;;;;;;;1.50;1.00;;;18.70;83.90;;;;;;5029197;28;20491;-79
2022/09/23 10:07:55;;;;;;;1.50;0.90;;;18.80;83.30;;;;;;5019967;28;20471;-79
2022/09/23 10:10:24;;;;;;;1.50;1.10;;;18.90;83.60;;;;;;5028580;28;20475;-78
2022/09/23 10:12:52;;;;;;;1.50;0.90;;;19.10;82.50;;;;;;5019095;28;20490;-81
2022/09/23 10:15:33;;;;;;;1.50;0.90;;;19.40;83.70;;;;;;5028462;28;20478;-79
2022/09/23 10:18:01;;;;;;;1.47;0.90;;;19.40;81.30;;;;;;5019031;28;20904;-80
2022/09/23 10:20:36;;;;;;;1.50;1.00;;;19.50;81.30;;;;;;5031805;28;20918;-80
2022/09/23 10:23:08;;;;;;;1.50;1.00;;;19.60;81.10;;;;;;5020278;28;20516;-81
2022/09/23 10:25:37;;;;;;;1.47;0.90;;;19.60;80.40;;;;;;5031006;28;21019;-81
2022/09/23 10:31:38;;;;;;;1.50;0.90;;;19.70;81.40;;;;;;5023212;28;20486;-80
2022/09/23 10:34:23;;;;;;;1.50;0.90;;;19.70;81.00;;;;;;5028859;28;20475;-80
2022/09/23 10:37:01;;;;;;;1.47;0.90;;;19.80;79.50;;;;;;5018074;28;20471;-80
2022/09/23 10:48:17;;;;;;;1.47;0.90;;;20.20;79.10;;;;;;5017414;28;20485;-80
2022/09/23 10:50:49;;;;;;;1.50;0.90;;;20.50;76.90;;;;;;5029335;28;20470;-80
2022/09/23 10:53:25;;;;;;;1.47;0.90;;;20.80;75.50;;;;;;5006226;28;20565;-80
2022/09/23 10:56:16;;;;;;;1.50;1.00;;;20.60;75.00;;;;;;5020141;28;20480;-79
2022/09/23 10:59:04;;;;;;;1.50;0.90;;;20.70;76.70;;;;;;5027926;28;20859;-80
2022/09/23 11:01:39;;;;;;;1.50;0.90;;;20.80;76.00;;;;;;5018470;28;21040;-80
2022/09/23 11:04:51;;;;;;;1.47;0.90;;;21.00;75.00;;;;;;5027786;28;20526;-80
2022/09/23 11:07:28;;;;;;;1.50;0.90;;;21.00;76.00;;;;;;4937103;28;20549;-79
2022/09/23 11:10:19;;;;;;;1.47;0.90;;;21.10;74.30;;;;;;5022474;28;20516;-81
2022/09/23 11:13:01;;;;;;;1.47;0.90;;;21.10;74.30;;;;;;5015911;28;20582;-80
2022/09/23 11:15:38;;;;;;;1.43;0.90;;;21.10;75.30;;;;;;5028236;28;20459;-80
2022/09/23 11:18:48;;;;;;;1.43;0.90;;;21.20;75.60;;;;;;5022304;28;20489;-79
2022/09/23 11:21:33;;;;;;;1.50;0.90;;;21.30;75.20;;;;;;4995880;28;20515;-80
2022/09/23 11:24:22;;;;;;;1.50;0.90;;;21.40;74.70;;;;;;5029614;28;20572;-80
2022/09/23 11:27:02;;;;;;;1.50;0.90;;;21.30;75.00;;;;;;5020370;28;20533;-80
2022/09/23 11:29:54;;;;;;;1.50;0.90;;;21.40;74.70;;;;;;5029051;28;20506;-81
2022/09/23 11:32:40;;;;;;;1.47;0.90;;;21.30;74.70;;;;;;5019046;28;20483;-80
2022/09/23 11:35:16;;;;;;;1.47;0.90;;;21.50;76.50;;;;;;5028796;28;20467;-80
2022/09/23 11:37:46;;;;;;;1.50;0.90;;;21.60;75.60;;;;;;5015541;28;20538;-81
2022/09/23 11:40:20;;;;;;;1.50;0.90;;;21.50;73.60;;;;;;5030673;28;20483;-80
2022/09/23 11:42:54;;;;;;;1.50;0.90;;;21.40;75.20;;;;;;5018918;28;20524;-80
2022/09/23 11:45:24;;;;;;;1.50;0.90;;;21.30;76.40;;;;;;5028846;28;20490;-81
2022/09/23 11:47:55;;;;;;;1.47;0.90;;;21.30;75.40;;;;;;5017130;28;20566;-80
2022/09/23 11:50:28;;;;;;;1.50;1.00;;;21.40;76.20;;;;;;5024491;28;20479;-80
2022/09/23 11:53:01;;;;;;;1.47;0.90;;;21.40;75.60;;;;;;5011149;28;20491;-80
2022/09/23 11:55:35;;;;;;;1.47;0.90;;;21.30;76.20;;;;;;5025172;28;20695;-80
2022/09/23 11:58:10;;;;;;;1.50;1.20;;;21.30;77.10;;;;;;5011558;28;20483;-80
2022/09/23 12:00:43;;;;;;;1.47;0.90;;;21.30;76.10;;;;;;5022745;28;21072;-81
2022/09/23 12:03:17;;;;;;;1.47;0.90;;;21.40;75.00;;;;;;4999287;28;20773;-80
2022/09/23 12:05:48;;;;;;;1.40;0.90;;;21.40;75.90;;;;;;5022913;28;20514;-81
2022/09/23 12:08:23;;;;;;;1.50;0.90;;;21.50;75.20;;;;;;4997924;28;20510;-81
2022/09/23 12:11:01;;;;;;;1.47;0.90;;;21.20;74.40;;;;;;5016873;28;20832;-80
2022/09/23 12:13:39;;;;;;;1.43;0.90;;;21.00;77.50;;;;;;5025762;28;20549;-80
2022/09/23 12:16:27;;;;;;;1.47;0.90;;;21.20;76.70;;;;;;5017530;28;20480;-80
2022/09/23 12:19:04;;;;;;;1.43;0.90;;;21.30;75.10;;;;;;5027627;28;20467;-80
2022/09/23 12:21:55;;;;;;;1.50;0.90;;;21.50;75.00;;;;;;5013405;28;20487;-80
2022/09/23 12:24:50;;;;;;;1.43;0.90;;;21.50;75.40;;;;;;5031142;28;20483;-80
2022/09/23 12:27:27;;;;;;;1.43;0.90;;;21.70;74.80;;;;;;5003701;28;21022;-81
2022/09/23 12:29:58;;;;;;;1.47;0.87;;;21.80;74.70;;;;;;5030386;28;20490;-81
2022/09/23 12:32:26;;;;;;;1.47;0.90;;;21.90;74.70;;;;;;5018979;28;20530;-80
2022/09/23 12:34:54;;;;;;;1.47;0.90;;;21.90;75.10;;;;;;5029625;28;20473;-81
2022/09/23 12:37:32;;;;;;;1.47;0.90;;;22.00;73.90;;;;;;5017505;28;20479;-80
2022/09/23 12:40:05;;;;;;;1.43;0.90;;;22.10;74.40;;;;;;5029465;28;20487;-80
2022/09/23 12:42:47;;;;;;;2.27;1.57;;;22.10;73.60;;;;;;5019482;28;21248;-81
2022/09/23 12:45:36;;;;;;;1.43;0.90;;;22.00;73.40;;;;;;5028933;28;20964;-80
2022/09/23 12:48:04;;;;;;;1.47;0.90;;;21.90;74.70;;;;;;5017002;28;20517;-81
2022/09/23 12:50:52;;;;;;;1.47;0.90;;;21.80;74.60;;;;;;5029274;28;20483;-80
2022/09/23 12:54:17;;;;;;;1.47;0.90;;;21.80;74.80;;;;;;5006372;28;20565;-80
2022/09/23 12:57:05;;;;;;;1.43;0.90;;;21.80;74.10;;;;;;5017659;28;20578;-80
2022/09/23 12:59:56;;;;;;;1.50;0.90;;;21.80;75.30;;;;;;5027077;28;20487;-80
2022/09/23 13:02:35;;;;;;;1.50;0.90;;;21.80;73.00;;;;;;5018368;28;20482;-80
2022/09/23 13:08:07;;;;;;;1.50;0.90;;;21.70;72.80;;;;;;5017846;28;21077;-80
2022/09/23 13:10:41;;;;;;;1.43;0.90;;;21.60;73.80;;;;;;5027186;28;20479;-81
2022/09/23 13:13:22;;;;;;;1.47;0.87;;;21.60;73.70;;;;;;5020002;28;20530;-80
2022/09/23 13:15:52;;;;;;;1.50;0.90;;;21.50;74.00;;;;;;5017872;28;20463;-79
2022/09/23 13:18:54;;;;;;;1.47;0.90;;;21.50;73.50;;;;;;5028056;28;20947;-80
2022/09/23 13:21:51;;;;;;;1.47;0.90;;;21.30;74.80;;;;;;5014313;28;20526;-80
2022/09/23 13:24:35;;;;;;;1.47;0.90;;;21.30;74.70;;;;;;5017643;28;20501;-80
2022/09/23 13:27:05;;;;;;;1.47;0.90;;;21.30;74.90;;;;;;5018338;28;20929;-79
2022/09/23 13:29:40;;;;;;;1.43;0.90;;;21.20;74.50;;;;;;5028881;28;20523;-80
2022/09/23 13:32:13;;;;;;;1.47;0.90;;;21.30;74.50;;;;;;5015925;28;20482;-79
2022/09/23 13:34:46;;;;;;;1.47;0.90;;;21.30;75.20;;;;;;5027239;28;20459;-80
2022/09/23 13:37:18;;;;;;;1.43;0.87;;;21.20;75.30;;;;;;5015243;28;20662;-79
2022/09/23 13:39:46;;;;;;;1.43;0.90;;;21.20;75.00;;;;;;5025585;28;20578;-80